sensor_id;sensor_type;location;lat;lon;timestamp;pressure;altitude;pressure_sealevel;temperature;humidity
57250;BME280;43102;52.014;-0.680;2024-01-06T00:00:00;100081;;;6.59;86.72
57250;BME280;43102;52.014;-0.680;2024-01-06T00:01:00;100081;;;6.59;86.72
57250;BME280;43102;52.014;-0.680;2024-01-06T00:02:00;100081;;;6.59;86.72
57250;BME280;43102;52.014;-0.680;2024-01-06T00:03:00;100084;;;6.58;86.73
57250;BME280;43102;52.014;-0.680;2024-01-06T00:04:00;100084;;;6.58;86.73
57250;BME280;43102;52.014;-0.680;2024-01-06T00:05:00;100084;;;6.58;86.73
57250;BME280;43102;52.014;-0.680;2024-01-06T00:06:00;100084;;;6.58;86.73
57250;BME280;43102;52.014;-0.680;2024-01-06T00:07:00;100084;;;6.58;86.73
57250;BME280;43102;52.014;-0.680;2024-01-06T00:08:00;100093;;;6.59;86.79
57250;BME280;43102;52.014;-0.680;2024-01-06T00:09:00;100093;;;6.59;86.79
57250;BME280;43102;52.014;-0.680;2024-01-06T00:10:00;100093;;;6.59;86.79
57250;BME280;43102;52.014;-0.680;2024-01-06T00:11:00;100093;;;6.59;86.79
57250;BME280;43102;52.014;-0.680;2024-01-06T00:12:00;100093;;;6.59;86.79
57250;BME280;43102;52.014;-0.680;2024-01-06T00:13:00;100090;;;6.60;86.84
57250;BME280;43102;52.014;-0.680;2024-01-06T00:14:00;100090;;;6.60;86.84
57250;BME280;43102;52.014;-0.680;2024-01-06T00:15:00;100090;;;6.60;86.84
57250;BME280;43102;52.014;-0.680;2024-01-06T00:16:00;100090;;;6.60;86.84
57250;BME280;43102;52.014;-0.680;2024-01-06T00:17:00;100090;;;6.60;86.84
57250;BME280;43102;52.014;-0.680;2024-01-06T00:18:00;100089;;;6.62;86.88
57250;BME280;43102;52.014;-0.680;2024-01-06T00:19:00;100089;;;6.62;86.88
57250;BME280;43102;52.014;-0.680;2024-01-06T00:20:00;100089;;;6.62;86.88
57250;BME280;43102;52.014;-0.680;2024-01-06T00:21:00;100089;;;6.62;86.88
57250;BME280;43102;52.014;-0.680;2024-01-06T00:22:00;100089;;;6.62;86.88
57250;BME280;43102;52.014;-0.680;2024-01-06T00:23:00;100094;;;6.63;86.92
57250;BME280;43102;52.014;-0.680;2024-01-06T00:24:00;100094;;;6.63;86.92
57250;BME280;43102;52.014;-0.680;2024-01-06T00:25:00;100094;;;6.63;86.92
57250;BME280;43102;52.014;-0.680;2024-01-06T00:26:00;100094;;;6.63;86.92
57250;BME280;43102;52.014;-0.680;2024-01-06T00:27:00;100094;;;6.63;86.92
57250;BME280;43102;52.014;-0.680;2024-01-06T00:28:01;100098;;;6.60;86.87
57250;BME280;43102;52.014;-0.680;2024-01-06T00:29:00;100098;;;6.60;86.87
57250;BME280;43102;52.014;-0.680;2024-01-06T00:30:00;100098;;;6.60;86.87
57250;BME280;43102;52.014;-0.680;2024-01-06T00:31:00;100098;;;6.60;86.87
57250;BME280;43102;52.014;-0.680;2024-01-06T00:32:00;100098;;;6.60;86.87
57250;BME280;43102;52.014;-0.680;2024-01-06T00:33:00;100112;;;6.59;86.72
57250;BME280;43102;52.014;-0.680;2024-01-06T00:34:00;100112;;;6.59;86.72
57250;BME280;43102;52.014;-0.680;2024-01-06T00:35:00;100112;;;6.59;86.72
57250;BME280;43102;52.014;-0.680;2024-01-06T00:36:00;100112;;;6.59;86.72
57250;BME280;43102;52.014;-0.680;2024-01-06T00:37:00;100112;;;6.59;86.72
57250;BME280;43102;52.014;-0.680;2024-01-06T00:38:00;100126;;;6.59;86.73
57250;BME280;43102;52.014;-0.680;2024-01-06T00:39:00;100126;;;6.59;86.73
57250;BME280;43102;52.014;-0.680;2024-01-06T00:40:00;100126;;;6.59;86.73
57250;BME280;43102;52.014;-0.680;2024-01-06T00:41:00;100126;;;6.59;86.73
57250;BME280;43102;52.014;-0.680;2024-01-06T00:42:00;100126;;;6.59;86.73
57250;BME280;43102;52.014;-0.680;2024-01-06T00:43:00;100129;;;6.57;86.71
57250;BME280;43102;52.014;-0.680;2024-01-06T00:44:00;100129;;;6.57;86.71
57250;BME280;43102;52.014;-0.680;2024-01-06T00:45:00;100129;;;6.57;86.71
57250;BME280;43102;52.014;-0.680;2024-01-06T00:46:00;100129;;;6.57;86.71
57250;BME280;43102;52.014;-0.680;2024-01-06T00:47:00;100129;;;6.57;86.71
57250;BME280;43102;52.014;-0.680;2024-01-06T00:48:00;100126;;;6.59;86.69
57250;BME280;43102;52.014;-0.680;2024-01-06T00:49:00;100126;;;6.59;86.69
57250;BME280;43102;52.014;-0.680;2024-01-06T00:50:00;100126;;;6.59;86.69
57250;BME280;43102;52.014;-0.680;2024-01-06T00:51:00;100126;;;6.59;86.69
57250;BME280;43102;52.014;-0.680;2024-01-06T00:52:00;100126;;;6.59;86.69
57250;BME280;43102;52.014;-0.680;2024-01-06T00:53:00;100136;;;6.61;86.71
57250;BME280;43102;52.014;-0.680;2024-01-06T00:54:00;100136;;;6.61;86.71
57250;BME280;43102;52.014;-0.680;2024-01-06T00:55:00;100136;;;6.61;86.71
57250;BME280;43102;52.014;-0.680;2024-01-06T00:56:00;100136;;;6.61;86.71
57250;BME280;43102;52.014;-0.680;2024-01-06T00:57:00;100136;;;6.61;86.71
57250;BME280;43102;52.014;-0.680;2024-01-06T00:58:00;100138;;;6.63;86.75
57250;BME280;43102;52.014;-0.680;2024-01-06T00:59:00;100138;;;6.63;86.75
57250;BME280;43102;52.014;-0.680;2024-01-06T01:00:00;100138;;;6.63;86.75
57250;BME280;43102;52.014;-0.680;2024-01-06T01:01:00;100138;;;6.63;86.75
57250;BME280;43102;52.014;-0.680;2024-01-06T01:02:00;100138;;;6.63;86.75
57250;BME280;43102;52.014;-0.680;2024-01-06T01:03:00;100138;;;6.63;86.77
57250;BME280;43102;52.014;-0.680;2024-01-06T01:04:00;100138;;;6.63;86.77
57250;BME280;43102;52.014;-0.680;2024-01-06T01:05:00;100138;;;6.63;86.77
57250;BME280;43102;52.014;-0.680;2024-01-06T01:06:00;100138;;;6.63;86.77
57250;BME280;43102;52.014;-0.680;2024-01-06T01:07:00;100138;;;6.63;86.77
57250;BME280;43102;52.014;-0.680;2024-01-06T01:08:00;100143;;;6.65;86.94
57250;BME280;43102;52.014;-0.680;2024-01-06T01:09:00;100143;;;6.65;86.94
57250;BME280;43102;52.014;-0.680;2024-01-06T01:10:00;100143;;;6.65;86.94
57250;BME280;43102;52.014;-0.680;2024-01-06T01:11:00;100143;;;6.65;86.94
57250;BME280;43102;52.014;-0.680;2024-01-06T01:12:00;100143;;;6.65;86.94
57250;BME280;43102;52.014;-0.680;2024-01-06T01:13:00;100140;;;6.65;86.95
57250;BME280;43102;52.014;-0.680;2024-01-06T01:14:00;100140;;;6.65;86.95
57250;BME280;43102;52.014;-0.680;2024-01-06T01:15:00;100140;;;6.65;86.95
57250;BME280;43102;52.014;-0.680;2024-01-06T01:16:00;100140;;;6.65;86.95
57250;BME280;43102;52.014;-0.680;2024-01-06T01:17:00;100140;;;6.65;86.95
57250;BME280;43102;52.014;-0.680;2024-01-06T01:18:00;100147;;;6.66;87.00
57250;BME280;43102;52.014;-0.680;2024-01-06T01:19:00;100147;;;6.66;87.00
57250;BME280;43102;52.014;-0.680;2024-01-06T01:20:00;100147;;;6.66;87.00
57250;BME280;43102;52.014;-0.680;2024-01-06T01:21:00;100147;;;6.66;87.00
57250;BME280;43102;52.014;-0.680;2024-01-06T01:22:00;100147;;;6.66;87.00
57250;BME280;43102;52.014;-0.680;2024-01-06T01:23:00;100148;;;6.68;87.04
57250;BME280;43102;52.014;-0.680;2024-01-06T01:24:00;100148;;;6.68;87.04
57250;BME280;43102;52.014;-0.680;2024-01-06T01:25:00;100148;;;6.68;87.04
57250;BME280;43102;52.014;-0.680;2024-01-06T01:26:00;100148;;;6.68;87.04
57250;BME280;43102;52.014;-0.680;2024-01-06T01:27:00;100148;;;6.68;87.04
57250;BME280;43102;52.014;-0.680;2024-01-06T01:28:00;100155;;;6.65;86.94
57250;BME280;43102;52.014;-0.680;2024-01-06T01:29:00;100155;;;6.65;86.94
57250;BME280;43102;52.014;-0.680;2024-01-06T01:30:00;100155;;;6.65;86.94
57250;BME280;43102;52.014;-0.680;2024-01-06T01:31:00;100155;;;6.65;86.94
57250;BME280;43102;52.014;-0.680;2024-01-06T01:32:00;100155;;;6.65;86.94
57250;BME280;43102;52.014;-0.680;2024-01-06T01:33:00;100158;;;6.65;86.98
57250;BME280;43102;52.014;-0.680;2024-01-06T01:34:00;100158;;;6.65;86.98
57250;BME280;43102;52.014;-0.680;2024-01-06T01:35:00;100158;;;6.65;86.98
57250;BME280;43102;52.014;-0.680;2024-01-06T01:36:00;100158;;;6.65;86.98
57250;BME280;43102;52.014;-0.680;2024-01-06T01:37:00;100158;;;6.65;86.98
57250;BME280;43102;52.014;-0.680;2024-01-06T01:38:00;100163;;;6.67;87.11
57250;BME280;43102;52.014;-0.680;2024-01-06T01:39:00;100163;;;6.67;87.11
57250;BME280;43102;52.014;-0.680;2024-01-06T01:40:00;100163;;;6.67;87.11
57250;BME280;43102;52.014;-0.680;2024-01-06T01:41:00;100163;;;6.67;87.11
57250;BME280;43102;52.014;-0.680;2024-01-06T01:42:00;100163;;;6.67;87.11
57250;BME280;43102;52.014;-0.680;2024-01-06T01:43:00;100171;;;6.66;87.15
57250;BME280;43102;52.014;-0.680;2024-01-06T01:44:00;100171;;;6.66;87.15
57250;BME280;43102;52.014;-0.680;2024-01-06T01:45:00;100171;;;6.66;87.15
57250;BME280;43102;52.014;-0.680;2024-01-06T01:46:00;100171;;;6.66;87.15
57250;BME280;43102;52.014;-0.680;2024-01-06T01:47:00;100171;;;6.66;87.15
57250;BME280;43102;52.014;-0.680;2024-01-06T01:48:00;100178;;;6.64;87.16
57250;BME280;43102;52.014;-0.680;2024-01-06T01:49:00;100178;;;6.64;87.16
57250;BME280;43102;52.014;-0.680;2024-01-06T01:50:00;100178;;;6.64;87.16
57250;BME280;43102;52.014;-0.680;2024-01-06T01:51:00;100178;;;6.64;87.16
57250;BME280;43102;52.014;-0.680;2024-01-06T01:52:00;100178;;;6.64;87.16
57250;BME280;43102;52.014;-0.680;2024-01-06T01:53:00;100183;;;6.67;87.21
57250;BME280;43102;52.014;-0.680;2024-01-06T01:54:01;100183;;;6.67;87.21
57250;BME280;43102;52.014;-0.680;2024-01-06T01:55:00;100183;;;6.67;87.21
57250;BME280;43102;52.014;-0.680;2024-01-06T01:56:00;100183;;;6.67;87.21
57250;BME280;43102;52.014;-0.680;2024-01-06T01:57:00;100183;;;6.67;87.21
57250;BME280;43102;52.014;-0.680;2024-01-06T01:58:00;100192;;;6.69;87.25
57250;BME280;43102;52.014;-0.680;2024-01-06T01:59:01;100192;;;6.69;87.25
57250;BME280;43102;52.014;-0.680;2024-01-06T02:00:00;100192;;;6.69;87.25
57250;BME280;43102;52.014;-0.680;2024-01-06T02:01:00;100192;;;6.69;87.25
57250;BME280;43102;52.014;-0.680;2024-01-06T02:02:00;100192;;;6.69;87.25
57250;BME280;43102;52.014;-0.680;2024-01-06T02:03:00;100199;;;6.69;87.29
57250;BME280;43102;52.014;-0.680;2024-01-06T02:04:00;100199;;;6.69;87.29
57250;BME280;43102;52.014;-0.680;2024-01-06T02:05:00;100199;;;6.69;87.29
57250;BME280;43102;52.014;-0.680;2024-01-06T02:06:00;100199;;;6.69;87.29
57250;BME280;43102;52.014;-0.680;2024-01-06T02:07:00;100199;;;6.69;87.29
57250;BME280;43102;52.014;-0.680;2024-01-06T02:08:00;100200;;;6.68;87.31
57250;BME280;43102;52.014;-0.680;2024-01-06T02:09:00;100200;;;6.68;87.31
57250;BME280;43102;52.014;-0.680;2024-01-06T02:10:00;100200;;;6.68;87.31
57250;BME280;43102;52.014;-0.680;2024-01-06T02:11:00;100200;;;6.68;87.31
57250;BME280;43102;52.014;-0.680;2024-01-06T02:12:00;100200;;;6.68;87.31
57250;BME280;43102;52.014;-0.680;2024-01-06T02:13:08;100201;;;6.65;87.38
57250;BME280;43102;52.014;-0.680;2024-01-06T02:14:00;100201;;;6.65;87.38
57250;BME280;43102;52.014;-0.680;2024-01-06T02:15:00;100201;;;6.65;87.38
57250;BME280;43102;52.014;-0.680;2024-01-06T02:16:00;100201;;;6.65;87.38
57250;BME280;43102;52.014;-0.680;2024-01-06T02:17:00;100201;;;6.65;87.38
57250;BME280;43102;52.014;-0.680;2024-01-06T02:18:00;100206;;;6.65;87.42
57250;BME280;43102;52.014;-0.680;2024-01-06T02:19:00;100206;;;6.65;87.42
57250;BME280;43102;52.014;-0.680;2024-01-06T02:20:00;100206;;;6.65;87.42
57250;BME280;43102;52.014;-0.680;2024-01-06T02:21:01;100206;;;6.65;87.42
57250;BME280;43102;52.014;-0.680;2024-01-06T02:22:00;100206;;;6.65;87.42
57250;BME280;43102;52.014;-0.680;2024-01-06T02:23:00;100210;;;6.65;87.49
57250;BME280;43102;52.014;-0.680;2024-01-06T02:24:00;100210;;;6.65;87.49
57250;BME280;43102;52.014;-0.680;2024-01-06T02:25:00;100210;;;6.65;87.49
57250;BME280;43102;52.014;-0.680;2024-01-06T02:26:00;100210;;;6.65;87.49
57250;BME280;43102;52.014;-0.680;2024-01-06T02:27:00;100210;;;6.65;87.49
57250;BME280;43102;52.014;-0.680;2024-01-06T02:28:00;100216;;;6.65;87.55
57250;BME280;43102;52.014;-0.680;2024-01-06T02:29:00;100216;;;6.65;87.55
57250;BME280;43102;52.014;-0.680;2024-01-06T02:30:00;100216;;;6.65;87.55
57250;BME280;43102;52.014;-0.680;2024-01-06T02:31:00;100216;;;6.65;87.55
57250;BME280;43102;52.014;-0.680;2024-01-06T02:32:00;100216;;;6.65;87.55
57250;BME280;43102;52.014;-0.680;2024-01-06T02:33:00;100221;;;6.61;87.55
57250;BME280;43102;52.014;-0.680;2024-01-06T02:34:00;100221;;;6.61;87.55
57250;BME280;43102;52.014;-0.680;2024-01-06T02:35:00;100221;;;6.61;87.55
57250;BME280;43102;52.014;-0.680;2024-01-06T02:36:00;100221;;;6.61;87.55
57250;BME280;43102;52.014;-0.680;2024-01-06T02:37:00;100221;;;6.61;87.55
57250;BME280;43102;52.014;-0.680;2024-01-06T02:38:00;100223;;;6.57;87.71
57250;BME280;43102;52.014;-0.680;2024-01-06T02:39:00;100223;;;6.57;87.71
57250;BME280;43102;52.014;-0.680;2024-01-06T02:40:00;100223;;;6.57;87.71
57250;BME280;43102;52.014;-0.680;2024-01-06T02:41:00;100223;;;6.57;87.71
57250;BME280;43102;52.014;-0.680;2024-01-06T02:42:00;100223;;;6.57;87.71
57250;BME280;43102;52.014;-0.680;2024-01-06T02:43:00;100235;;;6.56;87.79
57250;BME280;43102;52.014;-0.680;2024-01-06T02:44:00;100235;;;6.56;87.79
57250;BME280;43102;52.014;-0.680;2024-01-06T02:45:00;100235;;;6.56;87.79
57250;BME280;43102;52.014;-0.680;2024-01-06T02:46:00;100235;;;6.56;87.79
57250;BME280;43102;52.014;-0.680;2024-01-06T02:47:00;100235;;;6.56;87.79
57250;BME280;43102;52.014;-0.680;2024-01-06T02:48:00;100241;;;6.51;87.74
57250;BME280;43102;52.014;-0.680;2024-01-06T02:49:00;100241;;;6.51;87.74
57250;BME280;43102;52.014;-0.680;2024-01-06T02:50:00;100241;;;6.51;87.74
57250;BME280;43102;52.014;-0.680;2024-01-06T02:51:00;100241;;;6.51;87.74
57250;BME280;43102;52.014;-0.680;2024-01-06T02:52:00;100241;;;6.51;87.74
57250;BME280;43102;52.014;-0.680;2024-01-06T02:53:00;100247;;;6.50;87.78
57250;BME280;43102;52.014;-0.680;2024-01-06T02:54:00;100247;;;6.50;87.78
57250;BME280;43102;52.014;-0.680;2024-01-06T02:55:00;100247;;;6.50;87.78
57250;BME280;43102;52.014;-0.680;2024-01-06T02:56:00;100247;;;6.50;87.78
57250;BME280;43102;52.014;-0.680;2024-01-06T02:57:00;100247;;;6.50;87.78
57250;BME280;43102;52.014;-0.680;2024-01-06T02:58:00;100249;;;6.48;87.78
57250;BME280;43102;52.014;-0.680;2024-01-06T02:59:00;100249;;;6.48;87.78
57250;BME280;43102;52.014;-0.680;2024-01-06T03:00:00;100249;;;6.48;87.78
57250;BME280;43102;52.014;-0.680;2024-01-06T03:01:00;100249;;;6.48;87.78
57250;BME280;43102;52.014;-0.680;2024-01-06T03:02:01;100249;;;6.48;87.78
57250;BME280;43102;52.014;-0.680;2024-01-06T03:03:00;100253;;;6.46;87.81
57250;BME280;43102;52.014;-0.680;2024-01-06T03:04:00;100253;;;6.46;87.81
57250;BME280;43102;52.014;-0.680;2024-01-06T03:05:00;100253;;;6.46;87.81
57250;BME280;43102;52.014;-0.680;2024-01-06T03:06:00;100253;;;6.46;87.81
57250;BME280;43102;52.014;-0.680;2024-01-06T03:07:00;100253;;;6.46;87.81
57250;BME280;43102;52.014;-0.680;2024-01-06T03:08:00;100259;;;6.44;87.74
57250;BME280;43102;52.014;-0.680;2024-01-06T03:09:00;100259;;;6.44;87.74
57250;BME280;43102;52.014;-0.680;2024-01-06T03:10:00;100259;;;6.44;87.74
57250;BME280;43102;52.014;-0.680;2024-01-06T03:11:00;100259;;;6.44;87.74
57250;BME280;43102;52.014;-0.680;2024-01-06T03:12:00;100259;;;6.44;87.74
57250;BME280;43102;52.014;-0.680;2024-01-06T03:13:00;100258;;;6.45;87.81
57250;BME280;43102;52.014;-0.680;2024-01-06T03:14:00;100258;;;6.45;87.81
57250;BME280;43102;52.014;-0.680;2024-01-06T03:15:00;100258;;;6.45;87.81
57250;BME280;43102;52.014;-0.680;2024-01-06T03:16:03;100258;;;6.45;87.81
57250;BME280;43102;52.014;-0.680;2024-01-06T03:17:00;100258;;;6.45;87.81
57250;BME280;43102;52.014;-0.680;2024-01-06T03:18:00;100257;;;6.47;87.77
57250;BME280;43102;52.014;-0.680;2024-01-06T03:19:00;100257;;;6.47;87.77
57250;BME280;43102;52.014;-0.680;2024-01-06T03:20:00;100257;;;6.47;87.77
57250;BME280;43102;52.014;-0.680;2024-01-06T03:21:00;100257;;;6.47;87.77
57250;BME280;43102;52.014;-0.680;2024-01-06T03:22:00;100257;;;6.47;87.77
57250;BME280;43102;52.014;-0.680;2024-01-06T03:23:00;100270;;;6.44;87.79
57250;BME280;43102;52.014;-0.680;2024-01-06T03:24:00;100270;;;6.44;87.79
57250;BME280;43102;52.014;-0.680;2024-01-06T03:25:00;100270;;;6.44;87.79
57250;BME280;43102;52.014;-0.680;2024-01-06T03:26:04;100270;;;6.44;87.79
57250;BME280;43102;52.014;-0.680;2024-01-06T03:27:00;100270;;;6.44;87.79
57250;BME280;43102;52.014;-0.680;2024-01-06T03:28:00;100274;;;6.43;87.82
57250;BME280;43102;52.014;-0.680;2024-01-06T03:29:00;100274;;;6.43;87.82
57250;BME280;43102;52.014;-0.680;2024-01-06T03:30:00;100274;;;6.43;87.82
57250;BME280;43102;52.014;-0.680;2024-01-06T03:31:00;100274;;;6.43;87.82
57250;BME280;43102;52.014;-0.680;2024-01-06T03:32:00;100274;;;6.43;87.82
57250;BME280;43102;52.014;-0.680;2024-01-06T03:33:00;100285;;;6.40;87.86
57250;BME280;43102;52.014;-0.680;2024-01-06T03:34:00;100285;;;6.40;87.86
57250;BME280;43102;52.014;-0.680;2024-01-06T03:35:00;100285;;;6.40;87.86
57250;BME280;43102;52.014;-0.680;2024-01-06T03:36:04;100285;;;6.40;87.86
57250;BME280;43102;52.014;-0.680;2024-01-06T03:37:00;100285;;;6.40;87.86
57250;BME280;43102;52.014;-0.680;2024-01-06T03:38:00;100290;;;6.35;87.74
57250;BME280;43102;52.014;-0.680;2024-01-06T03:39:00;100290;;;6.35;87.74
57250;BME280;43102;52.014;-0.680;2024-01-06T03:40:00;100290;;;6.35;87.74
57250;BME280;43102;52.014;-0.680;2024-01-06T03:41:00;100290;;;6.35;87.74
57250;BME280;43102;52.014;-0.680;2024-01-06T03:42:00;100290;;;6.35;87.74
57250;BME280;43102;52.014;-0.680;2024-01-06T03:43:00;100302;;;6.34;87.73
57250;BME280;43102;52.014;-0.680;2024-01-06T03:44:00;100302;;;6.34;87.73
57250;BME280;43102;52.014;-0.680;2024-01-06T03:45:00;100302;;;6.34;87.73
57250;BME280;43102;52.014;-0.680;2024-01-06T03:46:00;100302;;;6.34;87.73
57250;BME280;43102;52.014;-0.680;2024-01-06T03:47:00;100302;;;6.34;87.73
57250;BME280;43102;52.014;-0.680;2024-01-06T03:48:00;100301;;;6.35;87.76
57250;BME280;43102;52.014;-0.680;2024-01-06T03:49:00;100301;;;6.35;87.76
57250;BME280;43102;52.014;-0.680;2024-01-06T03:50:00;100301;;;6.35;87.76
57250;BME280;43102;52.014;-0.680;2024-01-06T03:51:00;100301;;;6.35;87.76
57250;BME280;43102;52.014;-0.680;2024-01-06T03:52:00;100301;;;6.35;87.76
57250;BME280;43102;52.014;-0.680;2024-01-06T03:53:00;100299;;;6.35;87.66
57250;BME280;43102;52.014;-0.680;2024-01-06T03:54:00;100299;;;6.35;87.66
57250;BME280;43102;52.014;-0.680;2024-01-06T03:55:00;100299;;;6.35;87.66
57250;BME280;43102;52.014;-0.680;2024-01-06T03:56:00;100299;;;6.35;87.66
57250;BME280;43102;52.014;-0.680;2024-01-06T03:57:00;100299;;;6.35;87.66
57250;BME280;43102;52.014;-0.680;2024-01-06T03:58:00;100303;;;6.35;87.58
57250;BME280;43102;52.014;-0.680;2024-01-06T03:59:00;100303;;;6.35;87.58
57250;BME280;43102;52.014;-0.680;2024-01-06T04:00:00;100303;;;6.35;87.58
57250;BME280;43102;52.014;-0.680;2024-01-06T04:01:00;100303;;;6.35;87.58
57250;BME280;43102;52.014;-0.680;2024-01-06T04:02:00;100303;;;6.35;87.58
57250;BME280;43102;52.014;-0.680;2024-01-06T04:03:00;100305;;;6.34;87.45
57250;BME280;43102;52.014;-0.680;2024-01-06T04:04:00;100305;;;6.34;87.45
57250;BME280;43102;52.014;-0.680;2024-01-06T04:05:00;100305;;;6.34;87.45
57250;BME280;43102;52.014;-0.680;2024-01-06T04:06:00;100305;;;6.34;87.45
57250;BME280;43102;52.014;-0.680;2024-01-06T04:07:00;100305;;;6.34;87.45
57250;BME280;43102;52.014;-0.680;2024-01-06T04:08:00;100306;;;6.36;87.56
57250;BME280;43102;52.014;-0.680;2024-01-06T04:09:00;100306;;;6.36;87.56
57250;BME280;43102;52.014;-0.680;2024-01-06T04:10:00;100306;;;6.36;87.56
57250;BME280;43102;52.014;-0.680;2024-01-06T04:11:00;100306;;;6.36;87.56
57250;BME280;43102;52.014;-0.680;2024-01-06T04:12:00;100306;;;6.36;87.56
57250;BME280;43102;52.014;-0.680;2024-01-06T04:13:00;100302;;;6.30;87.06
57250;BME280;43102;52.014;-0.680;2024-01-06T04:14:00;100302;;;6.30;87.06
57250;BME280;43102;52.014;-0.680;2024-01-06T04:15:00;100302;;;6.30;87.06
57250;BME280;43102;52.014;-0.680;2024-01-06T04:16:00;100302;;;6.30;87.06
57250;BME280;43102;52.014;-0.680;2024-01-06T04:17:00;100302;;;6.30;87.06
57250;BME280;43102;52.014;-0.680;2024-01-06T04:18:01;100301;;;6.32;87.26
57250;BME280;43102;52.014;-0.680;2024-01-06T04:19:00;100301;;;6.32;87.26
57250;BME280;43102;52.014;-0.680;2024-01-06T04:20:00;100301;;;6.32;87.26
57250;BME280;43102;52.014;-0.680;2024-01-06T04:21:01;100301;;;6.32;87.26
57250;BME280;43102;52.014;-0.680;2024-01-06T04:22:01;100301;;;6.32;87.26
57250;BME280;43102;52.014;-0.680;2024-01-06T04:23:00;100326;;;6.29;87.21
57250;BME280;43102;52.014;-0.680;2024-01-06T04:24:00;100326;;;6.29;87.21
57250;BME280;43102;52.014;-0.680;2024-01-06T04:25:00;100326;;;6.29;87.21
57250;BME280;43102;52.014;-0.680;2024-01-06T04:26:00;100326;;;6.29;87.21
57250;BME280;43102;52.014;-0.680;2024-01-06T04:27:00;100326;;;6.29;87.21
57250;BME280;43102;52.014;-0.680;2024-01-06T04:28:00;100336;;;6.24;87.25
57250;BME280;43102;52.014;-0.680;2024-01-06T04:29:00;100336;;;6.24;87.25
57250;BME280;43102;52.014;-0.680;2024-01-06T04:30:00;100336;;;6.24;87.25
57250;BME280;43102;52.014;-0.680;2024-01-06T04:31:00;100336;;;6.24;87.25
57250;BME280;43102;52.014;-0.680;2024-01-06T04:32:00;100336;;;6.24;87.25
57250;BME280;43102;52.014;-0.680;2024-01-06T04:33:00;100340;;;6.26;87.29
57250;BME280;43102;52.014;-0.680;2024-01-06T04:34:00;100340;;;6.26;87.29
57250;BME280;43102;52.014;-0.680;2024-01-06T04:35:00;100340;;;6.26;87.29
57250;BME280;43102;52.014;-0.680;2024-01-06T04:36:00;100340;;;6.26;87.29
57250;BME280;43102;52.014;-0.680;2024-01-06T04:37:00;100340;;;6.26;87.29
57250;BME280;43102;52.014;-0.680;2024-01-06T04:38:00;100342;;;6.23;87.02
57250;BME280;43102;52.014;-0.680;2024-01-06T04:39:00;100342;;;6.23;87.02
57250;BME280;43102;52.014;-0.680;2024-01-06T04:40:00;100342;;;6.23;87.02
57250;BME280;43102;52.014;-0.680;2024-01-06T04:41:00;100342;;;6.23;87.02
57250;BME280;43102;52.014;-0.680;2024-01-06T04:42:00;100342;;;6.23;87.02
57250;BME280;43102;52.014;-0.680;2024-01-06T04:43:01;100345;;;6.21;86.94
57250;BME280;43102;52.014;-0.680;2024-01-06T04:44:00;100345;;;6.21;86.94
57250;BME280;43102;52.014;-0.680;2024-01-06T04:45:00;100345;;;6.21;86.94
57250;BME280;43102;52.014;-0.680;2024-01-06T04:46:00;100345;;;6.21;86.94
57250;BME280;43102;52.014;-0.680;2024-01-06T04:47:00;100345;;;6.21;86.94
57250;BME280;43102;52.014;-0.680;2024-01-06T04:48:00;100355;;;6.23;86.89
57250;BME280;43102;52.014;-0.680;2024-01-06T04:49:00;100355;;;6.23;86.89
57250;BME280;43102;52.014;-0.680;2024-01-06T04:50:00;100355;;;6.23;86.89
57250;BME280;43102;52.014;-0.680;2024-01-06T04:51:00;100355;;;6.23;86.89
57250;BME280;43102;52.014;-0.680;2024-01-06T04:52:00;100355;;;6.23;86.89
57250;BME280;43102;52.014;-0.680;2024-01-06T04:53:00;100356;;;6.13;86.09
57250;BME280;43102;52.014;-0.680;2024-01-06T04:54:00;100356;;;6.13;86.09
57250;BME280;43102;52.014;-0.680;2024-01-06T04:55:00;100356;;;6.13;86.09
57250;BME280;43102;52.014;-0.680;2024-01-06T04:56:00;100356;;;6.13;86.09
57250;BME280;43102;52.014;-0.680;2024-01-06T04:57:00;100356;;;6.13;86.09
57250;BME280;43102;52.014;-0.680;2024-01-06T04:58:00;100356;;;6.15;86.18
57250;BME280;43102;52.014;-0.680;2024-01-06T04:59:00;100356;;;6.15;86.18
57250;BME280;43102;52.014;-0.680;2024-01-06T05:00:00;100356;;;6.15;86.18
57250;BME280;43102;52.014;-0.680;2024-01-06T05:01:00;100356;;;6.15;86.18
57250;BME280;43102;52.014;-0.680;2024-01-06T05:02:00;100356;;;6.15;86.18
57250;BME280;43102;52.014;-0.680;2024-01-06T05:03:00;100362;;;6.17;86.18
57250;BME280;43102;52.014;-0.680;2024-01-06T05:04:00;100362;;;6.17;86.18
57250;BME280;43102;52.014;-0.680;2024-01-06T05:05:00;100362;;;6.17;86.18
57250;BME280;43102;52.014;-0.680;2024-01-06T05:06:01;100362;;;6.17;86.18
57250;BME280;43102;52.014;-0.680;2024-01-06T05:07:00;100362;;;6.17;86.18
57250;BME280;43102;52.014;-0.680;2024-01-06T05:08:00;100364;;;6.19;86.29
57250;BME280;43102;52.014;-0.680;2024-01-06T05:09:00;100364;;;6.19;86.29
57250;BME280;43102;52.014;-0.680;2024-01-06T05:10:00;100364;;;6.19;86.29
57250;BME280;43102;52.014;-0.680;2024-01-06T05:11:00;100364;;;6.19;86.29
57250;BME280;43102;52.014;-0.680;2024-01-06T05:12:00;100364;;;6.19;86.29
57250;BME280;43102;52.014;-0.680;2024-01-06T05:13:00;100368;;;6.21;86.42
57250;BME280;43102;52.014;-0.680;2024-01-06T05:14:00;100368;;;6.21;86.42
57250;BME280;43102;52.014;-0.680;2024-01-06T05:15:00;100368;;;6.21;86.42
57250;BME280;43102;52.014;-0.680;2024-01-06T05:16:00;100368;;;6.21;86.42
57250;BME280;43102;52.014;-0.680;2024-01-06T05:17:00;100368;;;6.21;86.42
57250;BME280;43102;52.014;-0.680;2024-01-06T05:18:00;100373;;;6.19;86.25
57250;BME280;43102;52.014;-0.680;2024-01-06T05:19:00;100373;;;6.19;86.25
57250;BME280;43102;52.014;-0.680;2024-01-06T05:20:00;100373;;;6.19;86.25
57250;BME280;43102;52.014;-0.680;2024-01-06T05:21:00;100373;;;6.19;86.25
57250;BME280;43102;52.014;-0.680;2024-01-06T05:22:00;100373;;;6.19;86.25
57250;BME280;43102;52.014;-0.680;2024-01-06T05:23:00;100384;;;6.18;86.23
57250;BME280;43102;52.014;-0.680;2024-01-06T05:24:00;100384;;;6.18;86.23
57250;BME280;43102;52.014;-0.680;2024-01-06T05:25:00;100384;;;6.18;86.23
57250;BME280;43102;52.014;-0.680;2024-01-06T05:26:00;100384;;;6.18;86.23